Time;durP1;ratioP1;P1;durP2;ratioP2;P2;SDS_P1;SDS_P2;PMS_P1;PMS_P2;Temp;Humidity;BMP_temperature;BMP_pressure;BME280_temperature;BME280_humidity;BME280_pressure;Samples;Min_cycle;Max_cycle;Signal;HPM_P1;HPM_P2
2024/04/23 00:00:07;;;;;;;5.95;3.88;;;;;;;0.00;93.03;101350.97;5470979;26;20049;-75
2024/04/23 00:02:37;;;;;;;5.35;4.00;;;;;;;-0.06;95.38;101357.78;5479606;26;19996;-75
2024/04/23 00:05:08;;;;;;;6.68;4.38;;;;;;;-0.19;96.16;101348.16;5472797;26;20010;-75
2024/04/23 00:07:38;;;;;;;5.85;3.92;;;;;;;-0.06;96.10;101342.31;5475536;26;19998;-75
2024/04/23 00:10:08;;;;;;;6.32;3.88;;;;;;;0.23;94.96;101338.28;5467041;26;20476;-75
2024/04/23 00:12:38;;;;;;;6.70;4.00;;;;;;;0.01;93.17;101338.94;5473144;26;20001;-75
2024/04/23 00:15:09;;;;;;;6.80;4.05;;;;;;;-0.09;94.20;101340.56;5468683;26;20009;-73
2024/04/23 00:17:39;;;;;;;6.15;4.13;;;;;;;-0.10;94.13;101335.38;5474601;26;20833;-75
2024/04/23 00:20:09;;;;;;;7.28;3.95;;;;;;;0.03;93.39;101337.25;5476089;26;20003;-75
2024/04/23 00:22:40;;;;;;;7.05;3.90;;;;;;;-0.29;94.65;101333.47;5471807;26;19997;-74
2024/04/23 00:25:10;;;;;;;7.60;4.18;;;;;;;-0.11;94.71;101343.97;5479562;26;20444;-75
2024/04/23 00:27:40;;;;;;;7.00;4.10;;;;;;;0.14;93.23;101335.63;5463034;26;19998;-73
2024/04/23 00:30:11;;;;;;;6.15;4.10;;;;;;;0.13;92.53;101331.31;5490885;26;19998;-74
2024/04/23 00:32:41;;;;;;;5.28;3.80;;;;;;;0.05;93.27;101325.22;5487002;26;20089;-75
2024/04/23 00:35:11;;;;;;;8.23;4.32;;;;;;;0.18;93.11;101327.06;5489169;26;20536;-74
2024/04/23 00:37:42;;;;;;;7.78;4.53;;;;;;;0.09;93.25;101321.81;5465735;26;20064;-74
2024/04/23 00:40:12;;;;;;;6.75;4.15;;;;;;;0.05;92.93;101320.06;5480751;26;20516;-74
2024/04/23 00:42:42;;;;;;;6.47;4.43;;;;;;;-0.06;94.16;101324.25;5490803;26;20502;-72
2024/04/23 00:45:14;;;;;;;6.43;4.45;;;;;;;-0.04;94.36;101322.53;5487271;26;20044;-75
2024/04/23 00:47:45;;;;;;;5.78;4.20;;;;;;;-0.14;94.36;101320.75;5487338;26;20071;-75
2024/04/23 00:50:16;;;;;;;6.78;4.10;;;;;;;-0.15;94.65;101313.88;5482735;26;20420;-74
2024/04/23 00:52:46;;;;;;;7.85;4.47;;;;;;;-0.32;94.13;101307.69;5487866;26;20069;-75
2024/04/23 00:55:17;;;;;;;6.70;4.55;;;;;;;-0.33;95.55;101305.94;5489648;26;20002;-74
2024/04/23 00:57:48;;;;;;;6.63;4.30;;;;;;;-0.22;95.84;101312.94;5485623;26;20379;-75
2024/04/23 01:00:18;;;;;;;7.82;4.75;;;;;;;-0.34;95.15;101314.53;5488595;26;20524;-75
2024/04/23 01:02:49;;;;;;;8.32;5.05;;;;;;;-0.26;95.51;101318.91;5455751;26;20013;-75
2024/04/23 01:05:20;;;;;;;7.80;4.70;;;;;;;0.03;94.05;101319.19;5485713;26;20005;-75
2024/04/23 01:07:50;;;;;;;8.00;4.57;;;;;;;0.01;92.94;101310.59;5487335;26;20006;-74
2024/04/23 01:10:21;;;;;;;6.78;4.53;;;;;;;-0.07;93.17;101309.63;5489385;26;21645;-75
2024/04/23 01:12:51;;;;;;;7.85;4.85;;;;;;;0.16;93.55;101310.69;5491085;26;20107;-75
2024/04/23 01:15:25;;;;;;;8.20;4.70;;;;;;;-0.07;93.10;101305.34;5449328;26;20460;-75
2024/04/23 01:18:01;;;;;;;8.27;5.43;;;;;;;-0.22;94.75;101305.19;5460739;26;20534;-75
2024/04/23 01:20:31;;;;;;;;;;;;;;;-0.36;95.23;101308.47;5486775;26;20021;-75
2024/04/23 01:23:27;;;;;;;10.13;5.43;;;;;;;-0.51;96.54;101306.59;5456601;26;19946;-74
2024/04/23 01:26:09;;;;;;;8.25;5.00;;;;;;;-0.36;97.45;101309.34;5488007;26;20467;-75
2024/04/23 01:28:41;;;;;;;7.93;5.30;;;;;;;-0.11;95.30;101302.72;5487397;26;20504;-74
2024/04/23 01:31:15;;;;;;;7.82;4.68;;;;;;;-0.23;93.93;101302.59;5483349;26;20002;-75
2024/04/23 01:33:48;;;;;;;8.73;4.57;;;;;;;-0.08;93.62;101302.75;5489373;26;20005;-75
2024/04/23 01:36:19;;;;;;;9.43;4.70;;;;;;;-0.06;93.13;101293.31;5481738;26;19994;-74
2024/04/23 01:38:50;;;;;;;6.85;4.60;;;;;;;0.11;90.99;101291.75;5488674;26;20531;-74
2024/04/23 01:41:21;;;;;;;8.77;4.45;;;;;;;-0.05;90.13;101292.47;5485039;26;20009;-75
2024/04/23 01:43:53;;;;;;;6.43;3.90;;;;;;;-0.19;90.33;101288.88;5488830;26;20016;-74
2024/04/23 01:46:23;;;;;;;7.28;4.25;;;;;;;-0.63;91.57;101294.41;5483477;26;20436;-75
2024/04/23 01:48:54;;;;;;;5.88;4.00;;;;;;;-0.56;94.09;101293.66;5487836;26;20011;-75
2024/04/23 01:51:24;;;;;;;7.97;4.40;;;;;;;-0.89;94.69;101295.84;5486234;26;20372;-75
2024/04/23 01:53:55;;;;;;;9.13;4.75;;;;;;;-0.90;95.88;101294.09;5485394;26;20492;-74
2024/04/23 01:56:25;;;;;;;7.32;4.35;;;;;;;-0.86;97.24;101301.88;5486143;26;19996;-75
2024/04/23 01:58:55;;;;;;;8.48;5.00;;;;;;;-0.78;98.34;101300.25;5484080;26;20001;-74
2024/04/23 02:01:28;;;;;;;6.25;4.63;;;;;;;-0.79;96.29;101293.38;5481302;26;20005;-74
2024/04/23 02:03:59;;;;;;;7.25;4.40;;;;;;;-0.81;96.73;101291.63;5458097;26;20111;-75
2024/04/23 02:06:30;;;;;;;6.47;4.22;;;;;;;-0.88;96.31;101292.41;5486946;26;19998;-75
2024/04/23 02:09:01;;;;;;;7.05;4.57;;;;;;;-0.88;96.87;101293.25;5491417;26;20025;-74
2024/04/23 02:11:31;;;;;;;6.90;4.30;;;;;;;-0.81;97.23;101284.78;5484925;26;20016;-74
2024/04/23 02:14:02;;;;;;;8.35;4.72;;;;;;;-0.85;97.34;101288.16;5460305;26;20005;-75
2024/04/23 02:16:32;;;;;;;7.20;4.90;;;;;;;-0.94;97.09;101277.75;5480838;26;20493;-75
2024/04/23 02:19:02;;;;;;;7.18;4.47;;;;;;;-1.05;97.61;101284.47;5489309;26;19994;-74
2024/04/23 02:21:33;;;;;;;9.65;5.53;;;;;;;-1.09;97.94;101274.13;5486380;26;20005;-75
2024/04/23 02:24:03;;;;;;;7.72;4.82;;;;;;;-1.09;97.76;101272.41;5483315;26;20005;-74
2024/04/23 02:26:33;;;;;;;8.02;5.00;;;;;;;-0.96;96.90;101269.16;5477959;26;20024;-75
2024/04/23 02:29:04;;;;;;;9.38;4.72;;;;;;;-0.77;96.56;101270.22;5484813;26;20543;-75
2024/04/23 02:31:34;;;;;;;7.38;4.80;;;;;;;-0.93;95.44;101265.75;5487758;26;20048;-75
2024/04/23 02:34:04;;;;;;;5.90;4.38;;;;;;;-0.68;94.73;101266.06;5487629;26;20001;-75
2024/04/23 02:36:35;;;;;;;7.57;4.60;;;;;;;-0.51;92.54;101261.94;5485567;26;19998;-75
2024/04/23 02:39:05;;;;;;;9.68;5.50;;;;;;;-0.46;91.08;101265.44;5461935;26;20009;-75
2024/04/23 02:41:49;;;;;;;14.30;7.63;;;;;;;-0.46;89.84;101268.00;5489037;26;20450;-74
2024/04/23 02:44:19;;;;;;;7.68;4.85;;;;;;;-0.72;90.60;101271.16;5486216;26;20079;-75
2024/04/23 02:46:49;;;;;;;8.02;4.53;;;;;;;-0.84;92.31;101271.00;5490185;26;20010;-73
2024/04/23 02:49:20;;;;;;;5.97;4.35;;;;;;;-0.85;93.22;101265.00;5495150;26;20004;-74
2024/04/23 02:51:52;;;;;;;7.90;4.65;;;;;;;-1.11;94.37;101274.09;5487971;26;20393;-74
2024/04/23 02:54:22;;;;;;;5.90;4.15;;;;;;;-1.11;95.52;101268.94;5496254;26;20012;-75
2024/04/23 02:56:53;;;;;;;6.18;4.45;;;;;;;-1.06;96.04;101263.88;5492815;26;20008;-74
2024/04/23 02:59:24;;;;;;;8.50;4.45;;;;;;;-1.20;96.09;101266.22;5495640;26;19997;-74
2024/04/23 03:02:02;;;;;;;7.88;4.68;;;;;;;-1.23;96.78;101263.63;5494165;26;20001;-75
2024/04/23 03:04:32;;;;;;;6.93;4.13;;;;;;;-1.02;96.39;101253.63;5487872;26;20431;-74
2024/04/23 03:07:03;;;;;;;6.78;4.10;;;;;;;-0.97;95.23;101256.25;5491949;26;20010;-74
2024/04/23 03:09:33;;;;;;;7.00;4.63;;;;;;;-1.07;94.64;101260.41;5487015;26;20499;-73
2024/04/23 03:12:03;;;;;;;6.72;4.13;;;;;;;-1.00;94.09;101251.94;5464090;26;20034;-74
2024/04/23 03:14:34;;;;;;;6.40;4.57;;;;;;;-1.06;93.65;101245.84;5500153;26;20465;-75
2024/04/23 03:17:04;;;;;;;10.48;4.95;;;;;;;-1.16;94.81;101252.59;5500591;26;20002;-74
2024/04/23 03:19:34;;;;;;;8.30;4.97;;;;;;;-1.29;94.95;101248.13;5497344;26;20567;-73
2024/04/23 03:22:05;;;;;;;8.32;5.13;;;;;;;-1.14;95.40;101240.59;5469414;26;20001;-74
2024/04/23 03:24:35;;;;;;;8.07;4.97;;;;;;;-0.96;94.74;101239.94;5492701;26;20471;-74
2024/04/23 03:27:05;;;;;;;6.63;4.80;;;;;;;-0.85;93.59;101235.78;5481464;26;20008;-74
2024/04/23 03:29:35;;;;;;;7.78;4.97;;;;;;;-0.84;92.25;101238.41;5500763;26;20648;-75
2024/04/23 03:32:06;;;;;;;8.13;4.82;;;;;;;-1.01;90.87;101229.63;5493184;26;20018;-74
2024/04/23 03:34:36;;;;;;;7.72;4.70;;;;;;;-1.21;90.25;101241.34;5492966;26;20738;-74
2024/04/23 03:37:06;;;;;;;8.57;4.43;;;;;;;-1.29;93.56;101239.50;5484208;26;20012;-74
2024/04/23 03:39:37;;;;;;;11.98;5.72;;;;;;;-1.38;95.23;101237.69;5459992;26;20045;-74
2024/04/23 03:42:07;;;;;;;9.40;5.78;;;;;;;-1.18;94.97;101235.38;5499001;26;20096;-75
2024/04/23 03:44:37;;;;;;;10.07;5.95;;;;;;;-1.27;95.83;101231.00;5500885;26;20014;-75
2024/04/23 03:47:08;;;;;;;9.48;6.30;;;;;;;-1.49;96.20;101236.69;5499526;26;20013;-74
2024/04/23 03:49:38;;;;;;;8.60;5.97;;;;;;;-1.51;96.96;101234.94;5491892;26;20492;-74
2024/04/23 03:52:08;;;;;;;9.25;5.85;;;;;;;-1.39;95.41;101237.69;5486813;26;20600;-75
2024/04/23 03:54:39;;;;;;;9.05;5.72;;;;;;;-1.42;95.57;101233.34;5478815;26;20092;-74
2024/04/23 03:57:09;;;;;;;9.48;6.05;;;;;;;-1.43;97.66;101231.63;5495239;26;20011;-74
2024/04/23 03:59:39;;;;;;;9.98;6.30;;;;;;;-1.59;96.39;101234.81;5485359;26;20489;-75
2024/04/23 04:07:47;;;;;;;9.50;6.20;;;;;;;-1.57;96.83;101228.00;5492616;26;20070;-74
2024/04/23 04:10:18;;;;;;;8.00;5.85;;;;;;;-1.16;96.76;101226.84;5488544;26;20001;-74
2024/04/23 04:12:48;;;;;;;8.48;5.75;;;;;;;-1.17;94.38;101227.69;5489996;26;20072;-75
2024/04/23 04:15:18;;;;;;;7.95;5.15;;;;;;;-1.27;95.35;101217.28;5495733;26;20009;-74
2024/04/23 04:17:49;;;;;;;8.10;5.90;;;;;;;-1.28;95.59;101224.13;5490707;26;19998;-74
2024/04/23 04:20:19;;;;;;;8.25;5.28;;;;;;;-1.20;95.40;101230.19;5492766;26;20001;-74
2024/04/23 04:22:49;;;;;;;8.48;4.95;;;;;;;-1.16;94.57;101237.16;5494890;26;20456;-74
2024/04/23 04:25:19;;;;;;;9.07;5.50;;;;;;;-1.29;94.42;101235.25;5483877;26;20001;-75
2024/04/23 04:27:50;;;;;;;6.65;5.28;;;;;;;-0.95;94.84;101233.94;5484021;26;20078;-74
2024/04/23 04:30:20;;;;;;;9.18;5.53;;;;;;;-0.88;94.12;101241.75;5498238;26;20476;-74
2024/04/23 04:32:50;;;;;;;10.82;5.70;;;;;;;-1.05;94.46;101252.72;5488751;26;20082;-72
2024/04/23 04:35:21;;;;;;;9.82;5.85;;;;;;;-0.84;93.94;101246.13;5492373;26;20016;-74
2024/04/23 04:37:51;;;;;;;11.25;5.50;;;;;;;-0.61;93.43;101247.22;5486694;26;20476;-74
2024/04/23 04:40:21;;;;;;;8.27;5.20;;;;;;;-0.85;91.39;101249.56;5492229;26;20024;-74
2024/04/23 04:42:52;;;;;;;6.53;4.93;;;;;;;-0.61;92.67;101242.09;5472659;26;20005;-74
2024/04/23 04:45:22;;;;;;;8.60;5.05;;;;;;;-0.66;92.39;101243.75;5460690;26;20017;-73
2024/04/23 04:47:53;;;;;;;7.85;5.45;;;;;;;-0.42;92.65;101246.56;5487965;26;20015;-74
2024/04/23 04:50:23;;;;;;;7.63;5.20;;;;;;;-0.38;91.38;101250.91;5490449;26;20529;-72
2024/04/23 04:52:53;;;;;;;9.85;5.60;;;;;;;-0.57;91.40;101254.13;5486256;26;20019;-74
2024/04/23 04:55:24;;;;;;;7.55;5.00;;;;;;;-0.10;90.99;101248.59;5476723;26;20449;-73
2024/04/23 04:57:54;;;;;;;6.70;4.80;;;;;;;-0.19;90.51;101253.69;5486536;26;20041;-75
2024/04/23 05:00:24;;;;;;;7.00;4.80;;;;;;;0.09;91.05;101247.91;5495341;26;20739;-72
2024/04/23 05:02:54;;;;;;;8.20;5.00;;;;;;;0.28;88.26;101236.00;5487214;26;20010;-74
2024/04/23 05:05:25;;;;;;;8.38;4.60;;;;;;;1.07;87.16;101236.44;5462771;26;20011;-72
2024/04/23 05:07:55;;;;;;;7.05;4.55;;;;;;;2.09;84.66;101229.75;5495024;26;20005;-74
2024/04/23 05:10:25;;;;;;;6.13;3.83;;;;;;;2.63;81.81;101228.78;5482396;26;20001;-72
2024/04/23 05:12:56;;;;;;;7.65;4.22;;;;;;;3.42;79.86;101228.47;5485493;26;20017;-74
2024/04/23 05:15:26;;;;;;;5.70;3.85;;;;;;;4.37;73.01;101224.31;5453222;26;20715;-72
2024/04/23 05:17:56;;;;;;;4.10;3.28;;;;;;;5.67;72.13;101214.03;5488027;26;20002;-75
2024/04/23 05:20:27;;;;;;;5.65;3.50;;;;;;;5.78;66.93;101217.34;5486974;26;20005;-72
2024/04/23 05:22:57;;;;;;;4.72;3.50;;;;;;;6.17;68.15;101212.38;5486704;26;20001;-75
2024/04/23 05:25:27;;;;;;;4.38;3.10;;;;;;;6.69;66.73;101207.97;5490454;26;20381;-73
2024/04/23 05:27:57;;;;;;;5.35;3.40;;;;;;;6.81;65.33;101218.16;5488670;26;20001;-75
2024/04/23 05:33:17;;;;;;;4.65;3.28;;;;;;;9.03;60.22;101198.78;5488267;26;20009;-73
2024/04/23 05:35:47;;;;;;;6.80;3.10;;;;;;;10.26;58.71;101194.03;5482421;26;20018;-75
2024/04/23 05:38:17;;;;;;;4.55;3.10;;;;;;;8.27;62.03;101208.75;5468796;26;20013;-74
2024/04/23 05:40:47;;;;;;;4.10;3.20;;;;;;;9.82;54.92;101208.59;5484455;21;20168;-74
2024/04/23 05:43:18;;;;;;;4.00;2.80;;;;;;;10.60;58.22;101203.34;5490368;26;20013;-75
2024/04/23 05:45:48;;;;;;;3.63;2.40;;;;;;;12.04;53.49;101203.06;5490968;26;20015;-74
2024/04/23 05:48:56;;;;;;;4.57;2.78;;;;;;;12.86;50.86;101194.22;5493046;26;20342;-74
2024/04/23 05:52:03;;;;;;;5.35;3.63;;;;;;;10.13;54.50;101211.94;5455866;26;20726;-74
2024/04/23 05:55:11;;;;;;;7.07;3.72;;;;;;;8.31;57.04;101226.06;5451536;26;20002;-73
2024/04/23 05:57:41;;;;;;;6.72;4.57;;;;;;;6.12;63.09;101239.38;5455097;26;20009;-74
2024/04/23 06:00:12;;;;;;;7.88;4.70;;;;;;;4.48;69.05;101245.00;5466139;26;20002;-74
2024/04/23 06:02:42;;;;;;;7.22;4.70;;;;;;;3.70;73.41;101250.81;5463382;26;19994;-72
2024/04/23 06:05:12;;;;;;;9.32;5.20;;;;;;;3.42;74.03;101259.59;5459658;26;20002;-74
2024/04/23 06:07:43;;;;;;;8.70;6.10;;;;;;;2.78;79.22;101250.34;5458747;26;20003;-71
2024/04/23 06:10:13;;;;;;;9.60;5.75;;;;;;;2.72;79.71;101252.97;5459107;26;20010;-74
2024/04/23 06:12:44;;;;;;;9.68;6.35;;;;;;;2.52;81.64;101246.94;5455733;26;20001;-71
2024/04/23 06:15:14;;;;;;;10.82;6.18;;;;;;;2.65;82.25;101246.06;5460595;26;20045;-72
2024/04/23 06:17:45;;;;;;;13.55;6.72;;;;;;;2.75;81.00;101245.19;5467747;26;20440;-74
2024/04/23 06:20:15;;;;;;;12.07;6.80;;;;;;;2.93;81.51;101241.66;5460469;26;20257;-73
2024/04/23 06:22:48;;;;;;;12.75;7.38;;;;;;;2.83;81.96;101251.19;5467263;26;20006;-73
2024/04/23 06:25:19;;;;;;;11.40;6.95;;;;;;;3.44;84.49;101242.28;5466566;26;20042;-73
2024/04/23 06:27:49;;;;;;;10.13;6.70;;;;;;;6.23;82.24;101225.28;5464306;26;19998;-73
2024/04/23 06:30:20;;;;;;;8.30;5.57;;;;;;;6.58;72.55;101228.13;5465643;26;20002;-73
2024/04/23 06:32:50;;;;;;;9.50;5.53;;;;;;;8.60;66.11;101214.84;5466408;26;20067;-72
2024/04/23 06:35:20;;;;;;;6.50;5.18;;;;;;;11.05;61.15;101210.44;5465289;26;20021;-73
2024/04/23 06:37:51;;;;;;;8.60;5.03;;;;;;;11.60;57.85;101198.72;5458065;26;20342;-74
2024/04/23 06:40:21;;;;;;;8.02;5.25;;;;;;;12.68;56.18;101197.69;5470471;26;20009;-75
2024/04/23 06:42:51;;;;;;;7.32;4.70;;;;;;;13.13;53.55;101204.41;5473800;26;20014;-73
2024/04/23 06:45:21;;;;;;;6.85;4.47;;;;;;;13.61;51.00;101202.13;5462289;26;20020;-75
2024/04/23 06:47:52;;;;;;;6.78;4.20;;;;;;;14.81;51.91;101196.91;5463763;26;20005;-74
2024/04/23 06:50:22;;;;;;;5.03;3.80;;;;;;;15.54;48.33;101194.69;5467102;26;20001;-74
2024/04/23 06:52:54;;;;;;;5.22;3.55;;;;;;;16.43;47.06;101197.50;5462920;26;20044;-73
2024/04/23 06:55:24;;;;;;;5.38;3.65;;;;;;;14.80;50.29;101202.25;5466327;26;20002;-71
2024/04/23 06:57:55;;;;;;;5.97;4.20;;;;;;;13.80;50.16;101200.34;5462122;26;20357;-75
2024/04/23 07:00:25;;;;;;;6.10;4.07;;;;;;;17.20;47.67;101184.75;5478652;26;20284;-74
2024/04/23 07:02:55;;;;;;;6.28;4.13;;;;;;;16.11;47.85;101196.75;5465292;26;20344;-72
2024/04/23 07:05:25;;;;;;;5.40;3.80;;;;;;;16.85;46.63;101191.34;5463441;26;20349;-71
2024/04/23 07:07:56;;;;;;;4.68;3.67;;;;;;;18.18;45.22;101186.31;5465148;26;20276;-72
2024/04/23 07:10:26;;;;;;;8.75;3.72;;;;;;;17.22;47.51;101188.16;5469526;26;20052;-72
2024/04/23 07:12:56;;;;;;;5.60;3.43;;;;;;;17.43;47.58;101184.16;5461105;26;20002;-72
2024/04/23 07:15:27;;;;;;;5.00;3.70;;;;;;;17.84;46.09;101174.41;5472244;26;20229;-72
2024/04/23 07:17:57;;;;;;;4.65;3.63;;;;;;;19.07;44.98;101173.91;5464400;26;20020;-71
2024/04/23 07:20:27;;;;;;;6.07;3.83;;;;;;;18.20;44.91;101176.44;5446629;26;20002;-71
2024/04/23 07:22:57;;;;;;;7.77;3.60;;;;;;;18.24;45.64;101167.31;5462220;26;20017;-71
2024/04/23 07:25:28;;;;;;;5.10;4.10;;;;;;;17.92;46.56;101166.81;5464631;26;20316;-72
2024/04/23 07:27:58;;;;;;;5.50;3.40;;;;;;;17.46;47.42;101157.44;5463609;26;20002;-72
2024/04/23 07:30:28;;;;;;;5.70;4.10;;;;;;;15.81;48.62;101164.06;5463349;26;20002;-73
2024/04/23 07:32:59;;;;;;;6.82;3.60;;;;;;;17.62;47.17;101158.16;5460814;26;20759;-73
2024/04/23 07:35:29;;;;;;;6.18;3.70;;;;;;;19.24;44.62;101154.94;5467441;26;20021;-71
2024/04/23 07:37:59;;;;;;;4.28;3.70;;;;;;;18.96;45.58;101152.53;5459856;26;19997;-69
2024/04/23 07:40:30;;;;;;;5.70;3.65;;;;;;;20.10;42.38;101154.78;5468146;26;20005;-70
2024/04/23 07:43:00;;;;;;;6.80;3.70;;;;;;;20.93;41.91;101136.69;5464434;26;20009;-72
2024/04/23 07:45:34;;;;;;;6.10;3.80;;;;;;;21.99;40.69;101141.28;5468840;26;20485;-71
2024/04/23 07:48:04;;;;;;;5.38;4.20;;;;;;;18.60;42.06;101150.59;5466287;26;20338;-69
2024/04/23 07:50:35;;;;;;;7.30;4.20;;;;;;;17.64;46.09;101145.63;5467041;26;20005;-72
2024/04/23 07:53:05;;;;;;;6.80;4.50;;;;;;;13.61;50.40;101157.31;5461707;26;20497;-71
2024/04/23 07:55:36;;;;;;;7.85;4.20;;;;;;;14.98;49.08;101151.97;5467152;26;20561;-72
2024/04/23 07:58:06;;;;;;;5.78;4.22;;;;;;;15.19;48.42;101150.00;5464843;26;20013;-72
2024/04/23 08:00:36;;;;;;;5.28;3.75;;;;;;;16.24;48.51;101141.28;5469399;26;20013;-71
2024/04/23 08:03:07;;;;;;;5.17;4.40;;;;;;;14.59;50.05;101143.53;5458736;26;20080;-70
2024/04/23 08:05:37;;;;;;;5.78;4.40;;;;;;;16.51;46.37;101135.19;5459006;26;20264;-71
2024/04/23 08:08:07;;;;;;;6.22;4.20;;;;;;;18.11;45.17;101124.81;5463248;26;20347;-70
2024/04/23 08:10:38;;;;;;;6.07;3.80;;;;;;;16.55;45.88;101132.25;5456357;26;20442;-72
2024/04/23 08:13:09;;;;;;;5.85;4.53;;;;;;;13.84;50.04;101137.72;5456132;26;19998;-71
2024/04/23 08:15:39;;;;;;;4.90;4.13;;;;;;;15.45;49.40;101129.09;5459406;26;20015;-71
2024/04/23 08:18:10;;;;;;;6.07;4.35;;;;;;;15.92;47.55;101134.31;5460852;26;19998;-71
2024/04/23 08:20:40;;;;;;;6.85;4.03;;;;;;;14.56;50.19;101135.75;5456033;26;20013;-73
2024/04/23 08:23:11;;;;;;;7.78;4.68;;;;;;;13.03;52.66;101132.00;5441160;26;20264;-71
2024/04/23 08:25:41;;;;;;;7.88;4.80;;;;;;;11.73;54.66;101131.56;5463453;26;20006;-71
2024/04/23 08:28:12;;;;;;;6.63;3.97;;;;;;;11.78;52.98;101134.91;5463192;26;20018;-71
2024/04/23 08:30:43;;;;;;;6.35;4.50;;;;;;;10.84;55.13;101137.75;5465312;26;20010;-71
2024/04/23 08:33:13;;;;;;;7.30;4.35;;;;;;;11.02;55.71;101125.69;5462004;26;20002;-70
2024/04/23 08:35:45;;;;;;;7.63;4.82;;;;;;;10.69;56.76;101132.19;5472980;26;20013;-68
2024/04/23 08:38:15;;;;;;;6.97;4.65;;;;;;;10.00;59.02;101123.28;5463996;26;20002;-69
2024/04/23 08:40:45;;;;;;;7.93;4.90;;;;;;;10.68;58.80;101115.59;5467259;26;19998;-69
2024/04/23 08:43:21;;;;;;;7.32;4.80;;;;;;;11.59;56.86;101105.88;5465045;26;20002;-71
2024/04/23 08:45:52;;;;;;;;;;;;;;;12.49;55.62;101104.63;5463537;26;20027;-73
2024/04/23 08:48:23;;;;;;;8.30;4.22;;;;;;;14.44;50.80;101090.66;5466244;26;19958;-72
2024/04/23 08:50:56;;;;;;;6.97;4.38;;;;;;;16.58;47.30;101076.44;5441789;26;20528;-74
2024/04/23 08:53:27;;;;;;;5.78;4.00;;;;;;;16.18;47.20;101080.75;5467933;26;20457;-73
2024/04/23 08:56:04;;;;;;;6.47;3.90;;;;;;;18.39;44.42;101068.84;5465445;26;20029;-74
2024/04/23 08:58:36;;;;;;;5.85;3.70;;;;;;;17.83;44.46;101071.84;5468373;26;20491;-75
2024/04/23 09:01:08;;;;;;;5.85;3.47;;;;;;;16.34;46.23;101068.25;5459791;26;20422;-72
2024/04/23 09:03:46;;;;;;;8.20;3.97;;;;;;;14.49;47.30;101080.72;5466445;26;20013;-72
2024/04/23 09:06:17;;;;;;;7.35;4.15;;;;;;;11.91;50.92;101096.69;5464758;26;20034;-72
2024/04/23 09:08:48;;;;;;;6.68;3.95;;;;;;;9.49;55.05;101099.66;5461752;26;19997;-68
2024/04/23 09:11:19;;;;;;;9.23;4.15;;;;;;;9.87;55.50;101094.03;5434038;27;20001;-74
2024/04/23 09:13:50;;;;;;;20.17;5.20;;;;;;;10.57;55.97;101078.34;5461392;26;20020;-72
2024/04/23 09:16:22;;;;;;;10.48;4.95;;;;;;;10.56;55.37;101072.31;5464339;26;20132;-71
2024/04/23 09:18:54;;;;;;;6.18;4.05;;;;;;;9.93;55.63;101069.34;5462413;26;20001;-73
2024/04/23 09:21:24;;;;;;;6.47;3.95;;;;;;;9.88;56.98;101066.91;5464351;26;20462;-70
2024/04/23 09:24:00;;;;;;;9.07;5.13;;;;;;;9.94;56.02;101066.69;5459781;26;19998;-73
2024/04/23 09:26:31;;;;;;;10.63;4.45;;;;;;;9.73;56.49;101062.19;5467407;26;20009;-74
2024/04/23 09:29:01;;;;;;;7.13;4.25;;;;;;;9.72;55.80;101060.47;5460094;26;20034;-74
2024/04/23 09:31:36;;;;;;;6.10;4.18;;;;;;;9.39;55.80;101055.47;5463056;26;20016;-73
2024/04/23 09:34:10;;;;;;;10.30;3.97;;;;;;;9.39;56.88;101055.47;5444607;26;20005;-73
2024/04/23 09:36:40;;;;;;;7.38;3.72;;;;;;;9.44;56.64;101051.81;5463987;26;20075;-74
2024/04/23 09:39:15;;;;;;;6.45;4.30;;;;;;;9.42;55.34;101056.25;5464700;26;20013;-73
2024/04/23 09:41:57;;;;;;;9.63;4.20;;;;;;;10.65;53.62;101051.88;5460824;26;20017;-75
2024/04/23 09:44:28;;;;;;;5.72;3.60;;;;;;;10.37;52.45;101039.81;5462657;26;20333;-70
2024/04/23 09:46:59;;;;;;;7.82;4.10;;;;;;;10.13;53.71;101041.53;5457363;26;20007;-72
2024/04/23 09:49:31;;;;;;;7.03;4.20;;;;;;;11.18;52.99;101032.28;5466930;26;19998;-72
2024/04/23 09:52:02;;;;;;;7.85;4.38;;;;;;;10.76;53.27;101033.97;5456592;26;21617;-73
2024/04/23 09:54:40;;;;;;;8.38;3.60;;;;;;;10.59;50.90;101031.09;5470456;26;20042;-73
2024/04/23 09:57:10;;;;;;;9.70;3.75;;;;;;;10.23;51.50;101026.34;5469248;26;20515;-73
2024/04/23 09:59:41;;;;;;;8.55;2.83;;;;;;;10.34;51.07;101019.78;5467245;26;20017;-72
2024/04/23 10:02:19;;;;;;;5.07;3.00;;;;;;;10.39;52.83;101012.63;5466914;26;20018;-72
2024/04/23 10:04:50;;;;;;;5.63;3.10;;;;;;;10.24;51.42;101013.19;5461927;26;20002;-73
2024/04/23 10:07:21;;;;;;;5.65;3.17;;;;;;;9.90;52.30;101004.81;5466270;26;20084;-72
2024/04/23 10:09:52;;;;;;;5.35;3.30;;;;;;;10.03;52.43;101008.69;5462929;26;20100;-73
2024/04/23 10:12:23;;;;;;;6.45;4.10;;;;;;;9.66;53.64;101012.66;5460023;26;20370;-73
2024/04/23 10:15:02;;;;;;;8.05;4.22;;;;;;;9.46;53.62;101008.09;5457309;26;20404;-74
2024/04/23 10:17:42;;;;;;;7.68;3.97;;;;;;;9.42;54.37;101009.13;5436677;26;20427;-72
2024/04/23 10:20:19;;;;;;;8.05;3.75;;;;;;;9.43;54.47;101007.34;5464359;26;20020;-73
2024/04/23 10:22:50;;;;;;;6.60;4.28;;;;;;;9.30;54.86;100999.03;5461805;26;20373;-73
2024/04/23 10:25:21;;;;;;;5.25;3.78;;;;;;;9.53;54.94;100995.66;5468177;26;20492;-71
2024/04/23 10:27:53;;;;;;;7.78;4.68;;;;;;;9.93;56.19;100991.59;5444356;26;19998;-72
2024/04/23 10:30:24;;;;;;;6.13;4.00;;;;;;;9.80;53.98;100989.47;5460515;26;20362;-72
2024/04/23 10:32:57;;;;;;;7.10;4.05;;;;;;;9.91;55.05;100982.94;5454855;26;20543;-72
2024/04/23 10:35:30;;;;;;;6.63;3.58;;;;;;;9.93;53.75;100975.88;5456384;26;20013;-70
2024/04/23 10:38:02;;;;;;;12.27;4.68;;;;;;;9.87;54.76;100970.88;5460285;26;20484;-71
2024/04/23 10:40:33;;;;;;;7.25;4.18;;;;;;;9.37;54.19;100970.88;5458282;26;20085;-72
2024/04/23 10:43:04;;;;;;;9.35;6.60;;;;;;;9.81;53.77;100962.38;5460742;26;20014;-70
2024/04/23 10:45:35;;;;;;;5.85;3.38;;;;;;;9.55;53.14;100968.50;5460707;26;20034;-71
2024/04/23 10:48:07;;;;;;;6.68;4.95;;;;;;;9.72;52.19;100966.16;5461475;26;20009;-71
2024/04/23 10:50:38;;;;;;;5.82;3.20;;;;;;;9.86;51.31;100960.44;5459250;26;20013;-68
2024/04/23 10:53:09;;;;;;;6.85;3.50;;;;;;;9.14;50.95;100960.31;5457742;26;19999;-71
2024/04/23 10:55:49;;;;;;;7.22;3.47;;;;;;;9.18;52.99;100947.03;5459833;26;20038;-69
2024/04/23 10:58:20;;;;;;;5.80;3.45;;;;;;;10.14;51.84;100948.88;5466444;26;20322;-72
2024/04/23 11:01:00;;;;;;;7.15;3.60;;;;;;;10.75;52.83;100932.53;5414813;26;20010;-70
2024/04/23 11:03:34;;;;;;;7.38;3.38;;;;;;;10.86;51.62;100932.94;5456095;26;20413;-72
2024/04/23 11:06:05;;;;;;;5.63;3.35;;;;;;;10.31;51.66;100925.50;5462713;26;20010;-72
2024/04/23 11:08:36;;;;;;;5.90;3.50;;;;;;;10.38;51.29;100936.63;5450537;26;20046;-72
2024/04/23 11:11:07;;;;;;;6.25;3.15;;;;;;;10.71;50.31;100921.31;5460729;26;20015;-71
2024/04/23 11:13:39;;;;;;;5.70;3.70;;;;;;;10.42;50.49;100917.22;5458745;26;20006;-72
2024/04/23 11:16:18;;;;;;;5.88;3.60;;;;;;;10.13;50.65;100907.00;5453946;26;20523;-71
2024/04/23 11:18:52;;;;;;;4.78;3.40;;;;;;;10.70;50.02;100910.84;5464287;26;20006;-72
2024/04/23 11:21:26;;;;;;;5.80;3.65;;;;;;;9.44;51.14;100918.25;5458561;26;20003;-70
2024/04/23 11:24:03;;;;;;;7.15;3.70;;;;;;;10.01;52.41;100905.69;5456550;26;20018;-71
2024/04/23 11:26:35;;;;;;;5.32;3.45;;;;;;;10.08;51.29;100908.94;5460239;26;20001;-72
2024/04/23 11:29:10;;;;;;;6.13;3.30;;;;;;;10.10;50.68;100905.34;5463266;26;20414;-72
2024/04/23 11:31:42;;;;;;;4.60;3.20;;;;;;;10.37;50.69;100898.19;5451839;26;20013;-70
2024/04/23 11:34:13;;;;;;;6.78;3.58;;;;;;;9.90;52.45;100904.38;5464710;26;20067;-72
2024/04/23 11:36:49;;;;;;;7.20;3.53;;;;;;;9.78;52.48;100895.19;5464000;26;20026;-71
2024/04/23 11:39:25;;;;;;;8.20;3.50;;;;;;;10.06;52.44;100893.28;5476213;26;20002;-72
2024/04/23 11:41:56;;;;;;;6.00;3.70;;;;;;;10.64;52.90;100887.50;5540442;21;20483;-74
2024/04/23 11:44:29;;;;;;;5.38;3.60;;;;;;;10.99;51.75;100879.03;5498451;26;20007;-75
2024/04/23 11:46:59;;;;;;;7.00;3.95;;;;;;;10.91;51.54;100876.72;5499236;26;20035;-75
2024/04/23 11:49:31;;;;;;;6.00;3.97;;;;;;;10.17;52.26;100875.34;5503888;26;20711;-75
2024/04/23 11:52:04;;;;;;;6.05;3.63;;;;;;;10.40;52.17;100877.09;5473332;26;20037;-76
2024/04/23 11:54:37;;;;;;;5.78;3.80;;;;;;;9.84;52.84;100876.63;5465314;26;20337;-75